sensor_id;sensor_type;location;lat;lon;timestamp;P1;P2;P0
76043;PMS7003;64740;34.694;33.088;2022-11-20T00:04:14;5.6;4.5;3.7
76043;PMS7003;64740;34.694;33.088;2022-11-20T00:09:52;5;4.5;3.8
76043;PMS7003;64740;34.694;33.088;2022-11-20T00:14:06;5.3;4.2;3.2
76043;PMS7003;64740;34.694;33.088;2022-11-20T00:19:26;5.4;4.5;3.6
76043;PMS7003;64740;34.694;33.088;2022-11-20T00:24:08;5.5;4.5;3.7
76043;PMS7003;64740;34.694;33.088;2022-11-20T00:29:08;4.8;4.2;3.2
76043;PMS7003;64740;34.694;33.088;2022-11-20T00:34:50;5;4.1;3.3
76043;PMS7003;64740;34.694;33.088;2022-11-20T00:39:06;5.2;4.2;3.4
76043;PMS7003;64740;34.694;33.088;2022-11-20T00:44:40;4.8;4.1;3.4
76043;PMS7003;64740;34.694;33.088;2022-11-20T00:49:38;5.2;4.1;3.2
76043;PMS7003;64740;34.694;33.088;2022-11-20T00:54:52;4.1;3.6;3
76043;PMS7003;64740;34.694;33.088;2022-11-20T00:59:16;4.8;4.1;3.5
76043;PMS7003;64740;34.694;33.088;2022-11-20T01:04:36;5.3;4.5;3.2
76043;PMS7003;64740;34.694;33.088;2022-11-20T01:09:07;4.6;3.7;3
76043;PMS7003;64740;34.694;33.088;2022-11-20T01:14:50;4.6;3.4;2.8
76043;PMS7003;64740;34.694;33.088;2022-11-20T01:19:19;5;4.2;3.4
76043;PMS7003;64740;34.694;33.088;2022-11-20T01:24:38;4.8;4.1;3.4
76043;PMS7003;64740;34.694;33.088;2022-11-20T01:29:06;4.3;3.5;2.9
76043;PMS7003;64740;34.694;33.088;2022-11-20T01:34:18;4.8;3.7;3.1
76043;PMS7003;64740;34.694;33.088;2022-11-20T01:39:30;4.1;3.5;2.7
76043;PMS7003;64740;34.694;33.088;2022-11-20T01:44:45;3.9;3.5;2.8
76043;PMS7003;64740;34.694;33.088;2022-11-20T01:49:43;3.8;3.5;2.7
76043;PMS7003;64740;34.694;33.088;2022-11-20T01:54:43;4.7;3.4;2.6
76043;PMS7003;64740;34.694;33.088;2022-11-20T01:59:18;4.7;3.2;2.7
76043;PMS7003;64740;34.694;33.088;2022-11-20T02:04:57;4.1;3.3;2.8
76043;PMS7003;64740;34.694;33.088;2022-11-20T02:09:56;4.5;3.5;2.8
76043;PMS7003;64740;34.694;33.088;2022-11-20T02:14:28;3.5;3.1;2.6
76043;PMS7003;64740;34.694;33.088;2022-11-20T02:19:40;4.1;3.3;2.8
76043;PMS7003;64740;34.694;33.088;2022-11-20T02:24:16;3.7;3.4;2.7
76043;PMS7003;64740;34.694;33.088;2022-11-20T02:29:51;3.1;2.4;1.9
76043;PMS7003;64740;34.694;33.088;2022-11-20T02:34:18;4;3.3;2.7
76043;PMS7003;64740;34.694;33.088;2022-11-20T02:39:40;4;3.1;2.4
76043;PMS7003;64740;34.694;33.088;2022-11-20T02:44:26;3.5;3.2;2.6
76043;PMS7003;64740;34.694;33.088;2022-11-20T02:49:18;3.9;3.2;2.7
76043;PMS7003;64740;34.694;33.088;2022-11-20T02:54:18;4.1;3.1;2.7
76043;PMS7003;64740;34.694;33.088;2022-11-20T02:59:40;3.8;3.2;2.6
76043;PMS7003;64740;34.694;33.088;2022-11-20T03:04:40;3.6;2.9;2.4
76043;PMS7003;64740;34.694;33.088;2022-11-20T03:09:40;3.7;2.7;2.2
76043;PMS7003;64740;34.694;33.088;2022-11-20T03:14:30;4.1;3.1;2.3
76043;PMS7003;64740;34.694;33.088;2022-11-20T03:19:54;3.7;2.9;2.5
76043;PMS7003;64740;34.694;33.088;2022-11-20T03:24:54;3.9;2.9;2.6
76043;PMS7003;64740;34.694;33.088;2022-11-20T03:29:54;4;3.4;2.6
76043;PMS7003;64740;34.694;33.088;2022-11-20T03:34:38;3.8;3;2.3
76043;PMS7003;64740;34.694;33.088;2022-11-20T03:39:18;3.6;2.9;2.4
76043;PMS7003;64740;34.694;33.088;2022-11-20T03:44:52;4.6;3.4;2.7
76043;PMS7003;64740;34.694;33.088;2022-11-20T03:49:30;3.3;2.7;2.2
76043;PMS7003;64740;34.694;33.088;2022-11-20T03:54:40;3.4;2.7;2.1
76043;PMS7003;64740;34.694;33.088;2022-11-20T03:59:18;3.5;2.8;2.3
76043;PMS7003;64740;34.694;33.088;2022-11-20T04:04:18;3.5;2.8;2.2
76043;PMS7003;64740;34.694;33.088;2022-11-20T04:09:28;3.1;2.8;2.4
76043;PMS7003;64740;34.694;33.088;2022-11-20T04:14:40;3.9;2.9;2.2
76043;PMS7003;64740;34.694;33.088;2022-11-20T04:19:40;3.6;2.9;2.3
76043;PMS7003;64740;34.694;33.088;2022-11-20T04:24:38;3.4;2.7;2.3
76043;PMS7003;64740;34.694;33.088;2022-11-20T04:29:06;3.4;2.4;2.1
76043;PMS7003;64740;34.694;33.088;2022-11-20T04:34:54;4.5;2.4;2
76043;PMS7003;64740;34.694;33.088;2022-11-20T04:39:52;3.2;2.3;1.8
76043;PMS7003;64740;34.694;33.088;2022-11-20T04:44:26;3.4;2.7;2.3
76043;PMS7003;64740;34.694;33.088;2022-11-20T04:49:26;3.5;2.6;2.2
76043;PMS7003;64740;34.694;33.088;2022-11-20T04:54:06;3.7;2.7;2.3
76043;PMS7003;64740;34.694;33.088;2022-11-20T04:59:54;3.5;2.6;2.1
76043;PMS7003;64740;34.694;33.088;2022-11-20T05:04:30;4;2.8;2.2
76043;PMS7003;64740;34.694;33.088;2022-11-20T05:09:40;3.9;2.6;2.1
76043;PMS7003;64740;34.694;33.088;2022-11-20T05:14:26;3.7;2.9;2.4
76043;PMS7003;64740;34.694;33.088;2022-11-20T05:19:18;3.8;2.8;2.3
76043;PMS7003;64740;34.694;33.088;2022-11-20T05:24:18;2.9;2.4;1.9
76043;PMS7003;64740;34.694;33.088;2022-11-20T05:29:40;4.4;3;2.3
76043;PMS7003;64740;34.694;33.088;2022-11-20T05:34:38;3.5;2.8;2.1
76043;PMS7003;64740;34.694;33.088;2022-11-20T05:39:40;4.7;3.3;2.7
76043;PMS7003;64740;34.694;33.088;2022-11-20T05:44:18;3.9;3.1;2.6
76043;PMS7003;64740;34.694;33.088;2022-11-20T05:49:52;4.1;3;2.5
76043;PMS7003;64740;34.694;33.088;2022-11-20T05:54:52;4.6;3.4;2.9
76043;PMS7003;64740;34.694;33.088;2022-11-20T05:59:26;3.6;2.9;2.4
76043;PMS7003;64740;34.694;33.088;2022-11-20T06:04:40;4.3;3.4;2.6
76043;PMS7003;64740;34.694;33.088;2022-11-20T06:09:18;4.6;3.3;2.6
76043;PMS7003;64740;34.694;33.088;2022-11-20T06:14:54;3.7;2.9;2.4
76043;PMS7003;64740;34.694;33.088;2022-11-20T06:19:30;3.7;3;2.3
76043;PMS7003;64740;34.694;33.088;2022-11-20T06:24:40;3.7;2.9;2.2
76043;PMS7003;64740;34.694;33.088;2022-11-20T06:29:26;3.7;3.2;2.6
76043;PMS7003;64740;34.694;33.088;2022-11-20T06:34:18;4.6;3;2.5
76043;PMS7003;64740;34.694;33.088;2022-11-20T06:39:18;4.9;3.6;2.8
76043;PMS7003;64740;34.694;33.088;2022-11-20T06:44:30;4.1;2.9;2.4
76043;PMS7003;64740;34.694;33.088;2022-11-20T06:49:20;3.3;2.1;1.7
76043;PMS7003;64740;34.694;33.088;2022-11-20T06:54:42;3.9;2.9;2.4
76043;PMS7003;64740;34.694;33.088;2022-11-20T06:59:28;4.7;3.5;2.8
76043;PMS7003;64740;34.694;33.088;2022-11-20T07:04:56;4.2;3.3;2.6
76043;PMS7003;64740;34.694;33.088;2022-11-20T07:09:56;4.2;3.7;3.1
76043;PMS7003;64740;34.694;33.088;2022-11-20T07:14:06;4.4;3.9;3.3
76043;PMS7003;64740;34.694;33.088;2022-11-20T07:19:42;6.5;4.5;3.9
76043;PMS7003;64740;34.694;33.088;2022-11-20T07:24:18;5.9;4.5;3.9
76043;PMS7003;64740;34.694;33.088;2022-11-20T07:29:56;5.7;4.8;3.7
76043;PMS7003;64740;34.694;33.088;2022-11-20T07:34:30;5.6;4.7;3.8
76043;PMS7003;64740;34.694;33.088;2022-11-20T07:39:56;6.2;5.2;4.2
76043;PMS7003;64740;34.694;33.088;2022-11-20T07:44:28;6.4;5.3;4.6
76043;PMS7003;64740;34.694;33.088;2022-11-20T07:49:18;5.9;5.1;4.4
76043;PMS7003;64740;34.694;33.088;2022-11-20T07:54:30;6.8;5.5;4.2
76043;PMS7003;64740;34.694;33.088;2022-11-20T07:59:40;5.9;5;4.2
76043;PMS7003;64740;34.694;33.088;2022-11-20T08:04:20;6.3;5.5;4.5
76043;PMS7003;64740;34.694;33.088;2022-11-20T08:09:42;7.1;6.3;5.2
76043;PMS7003;64740;34.694;33.088;2022-11-20T08:14:30;6.8;5.7;4.6
76043;PMS7003;64740;34.694;33.088;2022-11-20T08:19:54;7.6;5.7;4.5
76043;PMS7003;64740;34.694;33.088;2022-11-20T08:24:54;6.8;5.6;4.3
76043;PMS7003;64740;34.694;33.088;2022-11-20T08:29:26;7.2;6.2;4.8
76043;PMS7003;64740;34.694;33.088;2022-11-20T08:34:28;8;6.7;5
76043;PMS7003;64740;34.694;33.088;2022-11-20T08:39:06;7.6;6.4;4.9
76043;PMS7003;64740;34.694;33.088;2022-11-20T08:44:56;7.8;6.1;4.7
76043;PMS7003;64740;34.694;33.088;2022-11-20T08:49:07;6.7;5.9;4.9
76043;PMS7003;64740;34.694;33.088;2022-11-20T08:54:54;7.2;5.7;4.7
76043;PMS7003;64740;34.694;33.088;2022-11-20T08:59:36;6.9;5.8;4.7
76043;PMS7003;64740;34.694;33.088;2022-11-20T09:04:06;7.4;6.2;4.8
76043;PMS7003;64740;34.694;33.088;2022-11-20T09:09:08;6.3;5.1;4.1
76043;PMS7003;64740;34.694;33.088;2022-11-20T09:14:42;6.7;5.3;4.2
76043;PMS7003;64740;34.694;33.088;2022-11-20T09:19:54;6.3;5.3;4.4
76043;PMS7003;64740;34.694;33.088;2022-11-20T09:24:54;5.8;5.1;3.8
76043;PMS7003;64740;34.694;33.088;2022-11-20T09:29:06;5.7;4.6;3.6
76043;PMS7003;64740;34.694;33.088;2022-11-20T09:34:36;6.6;5;4
76043;PMS7003;64740;34.694;33.088;2022-11-20T09:39:26;4.9;3.8;2.9
76043;PMS7003;64740;34.694;33.088;2022-11-20T09:44:47;5.9;4.9;4
76043;PMS7003;64740;34.694;33.088;2022-11-20T09:49:28;5.6;4.6;3.8
76043;PMS7003;64740;34.694;33.088;2022-11-20T09:54:07;6.9;5.6;4.4
76043;PMS7003;64740;34.694;33.088;2022-11-20T09:59:29;7.1;5.9;4.7
76043;PMS7003;64740;34.694;33.088;2022-11-20T10:04:51;8.3;6.3;5
76043;PMS7003;64740;34.694;33.088;2022-11-20T10:09:25;7.5;6.4;5
76043;PMS7003;64740;34.694;33.088;2022-11-20T10:14:54;7.4;6.2;4.8
76043;PMS7003;64740;34.694;33.088;2022-11-20T10:19:08;8.7;6.9;5.2
76043;PMS7003;64740;34.694;33.088;2022-11-20T10:24:42;7.2;6.5;5.3
76043;PMS7003;64740;34.694;33.088;2022-11-20T10:29:39;8.6;6.2;5
76043;PMS7003;64740;34.694;33.088;2022-11-20T10:34:51;7.6;6.4;5.2
76043;PMS7003;64740;34.694;33.088;2022-11-20T10:39:54;8;6.5;5.1
76043;PMS7003;64740;34.694;33.088;2022-11-20T10:44:17;8.4;7.2;5.8
76043;PMS7003;64740;34.694;33.088;2022-11-20T10:49:38;9.4;6.8;5.3
76043;PMS7003;64740;34.694;33.088;2022-11-20T10:54:29;7.6;6.7;5.3
76043;PMS7003;64740;34.694;33.088;2022-11-20T10:59:41;9.1;6.9;5.6
76043;PMS7003;64740;34.694;33.088;2022-11-20T11:04:30;7.9;6.9;5.3
76043;PMS7003;64740;34.694;33.088;2022-11-20T11:09:15;9.2;7.1;5.3
76043;PMS7003;64740;34.694;33.088;2022-11-20T11:14:26;9.4;7;5.2
76043;PMS7003;64740;34.694;33.088;2022-11-20T11:20:01;8.9;7.3;6.2
76043;PMS7003;64740;34.694;33.088;2022-11-20T11:24:04;9.1;7.1;5.8
76043;PMS7003;64740;34.694;33.088;2022-11-20T11:29:50;8.6;7.3;6
76043;PMS7003;64740;34.694;33.088;2022-11-20T11:34:07;9.2;7.9;6.3
76043;PMS7003;64740;34.694;33.088;2022-11-20T11:39:41;9.1;7.9;6.3
76043;PMS7003;64740;34.694;33.088;2022-11-20T11:44:43;9.6;7.9;6.4
76043;PMS7003;64740;34.694;33.088;2022-11-20T11:50:00;9.9;8.7;7.1
76043;PMS7003;64740;34.694;33.088;2022-11-20T11:54:55;10.1;8.4;6.5
76043;PMS7003;64740;34.694;33.088;2022-11-20T11:59:21;8.2;6.9;5.5
76043;PMS7003;64740;34.694;33.088;2022-11-20T12:04:43;9.8;7.7;6.2
76043;PMS7003;64740;34.694;33.088;2022-11-20T12:09:08;8.3;7.4;6.1
76043;PMS7003;64740;34.694;33.088;2022-11-20T12:14:42;8.2;7;5.9
76043;PMS7003;64740;34.694;33.088;2022-11-20T12:19:54;8.2;6.9;5.4
76043;PMS7003;64740;34.694;33.088;2022-11-20T12:24:10;6.7;6.3;5.1
76043;PMS7003;64740;34.694;33.088;2022-11-20T12:29:32;8.2;6.4;5.1
76043;PMS7003;64740;34.694;33.088;2022-11-20T12:34:56;6.7;6;4.8
76043;PMS7003;64740;34.694;33.088;2022-11-20T12:39:31;7.1;6.3;4.7
76043;PMS7003;64740;34.694;33.088;2022-11-20T12:44:59;7.7;6.5;5.2
76043;PMS7003;64740;34.694;33.088;2022-11-20T12:49:30;6.9;6;4.8
76043;PMS7003;64740;34.694;33.088;2022-11-20T12:54:34;7.4;6.5;5.4
76043;PMS7003;64740;34.694;33.088;2022-11-20T12:59:23;9.5;7.8;6.2
76043;PMS7003;64740;34.694;33.088;2022-11-20T13:04:55;10.2;8.8;7
76043;PMS7003;64740;34.694;33.088;2022-11-20T13:09:54;8.7;7.6;5.8
76043;PMS7003;64740;34.694;33.088;2022-11-20T13:14:23;9.6;7.4;6.1
76043;PMS7003;64740;34.694;33.088;2022-11-20T13:19:53;8.3;7;5.4
76043;PMS7003;64740;34.694;33.088;2022-11-20T13:24:40;7.9;7.1;5.7
76043;PMS7003;64740;34.694;33.088;2022-11-20T13:29:42;8.8;6.6;5.4
76043;PMS7003;64740;34.694;33.088;2022-11-20T13:34:26;6.9;6.1;5.2
76043;PMS7003;64740;34.694;33.088;2022-11-20T13:39:23;7.6;6.4;5.2
76043;PMS7003;64740;34.694;33.088;2022-11-20T13:44:39;8.7;6.8;5.6
76043;PMS7003;64740;34.694;33.088;2022-11-20T13:49:50;8.5;6.7;5.3
76043;PMS7003;64740;34.694;33.088;2022-11-20T13:54:31;8;6.9;5.5
76043;PMS7003;64740;34.694;33.088;2022-11-20T13:59:53;9.3;7.6;5.9
76043;PMS7003;64740;34.694;33.088;2022-11-20T14:04:26;8.7;7.5;6
76043;PMS7003;64740;34.694;33.088;2022-11-20T14:09:38;9.8;7.8;6.2
76043;PMS7003;64740;34.694;33.088;2022-11-20T14:14:27;9.3;7.9;6.3
76043;PMS7003;64740;34.694;33.088;2022-11-20T14:19:36;9;7.8;6.2
76043;PMS7003;64740;34.694;33.088;2022-11-20T14:24:49;9;7.8;6.1
76043;PMS7003;64740;34.694;33.088;2022-11-20T14:29:15;8.9;7.1;5.8
76043;PMS7003;64740;34.694;33.088;2022-11-20T14:34:49;9.8;8.5;6.6
76043;PMS7003;64740;34.694;33.088;2022-11-20T14:39:37;10.6;8.4;6.2
76043;PMS7003;64740;34.694;33.088;2022-11-20T14:44:40;9.9;8;6.3
76043;PMS7003;64740;34.694;33.088;2022-11-20T14:49:24;9;7.6;5.9
76043;PMS7003;64740;34.694;33.088;2022-11-20T14:54:17;9.7;8.2;6.1
76043;PMS7003;64740;34.694;33.088;2022-11-20T14:59:27;8.3;7.8;5.9
76043;PMS7003;64740;34.694;33.088;2022-11-20T15:04:47;9.1;7.8;6.1
76043;PMS7003;64740;34.694;33.088;2022-11-20T15:09:14;10.9;8.5;6.7
76043;PMS7003;64740;34.694;33.088;2022-11-20T15:14:48;10.1;8.8;6.8
76043;PMS7003;64740;34.694;33.088;2022-11-20T15:19:42;15.9;12.8;9.4
76043;PMS7003;64740;34.694;33.088;2022-11-20T15:24:38;18.2;15.9;12.1
76043;PMS7003;64740;34.694;33.088;2022-11-20T15:29:07;14.2;12.8;9.4
76043;PMS7003;64740;34.694;33.088;2022-11-20T15:34:36;12.6;10.2;8.2
76043;PMS7003;64740;34.694;33.088;2022-11-20T15:39:44;12.3;10;7.8
76043;PMS7003;64740;34.694;33.088;2022-11-20T15:44:16;11.7;9.9;7.9
76043;PMS7003;64740;34.694;33.088;2022-11-20T15:49:50;11.3;9.6;7.2
76043;PMS7003;64740;34.694;33.088;2022-11-20T15:54:36;13.7;11.5;8.6
76043;PMS7003;64740;34.694;33.088;2022-11-20T15:59:38;12;9.6;7.1
76043;PMS7003;64740;34.694;33.088;2022-11-20T16:04:13;12.7;10.7;8.4
76043;PMS7003;64740;34.694;33.088;2022-11-20T16:09:14;12.6;11;8.1
76043;PMS7003;64740;34.694;33.088;2022-11-20T16:14:24;12;10.4;8.3
76043;PMS7003;64740;34.694;33.088;2022-11-20T16:19:48;12;10.3;8
76043;PMS7003;64740;34.694;33.088;2022-11-20T16:24:15;12.4;9.7;7.3
76043;PMS7003;64740;34.694;33.088;2022-11-20T16:29:48;11;9.6;7.5
76043;PMS7003;64740;34.694;33.088;2022-11-20T16:34:26;11.7;9.8;7.6
76043;PMS7003;64740;34.694;33.088;2022-11-20T16:39:36;11.1;9.5;7.4
76043;PMS7003;64740;34.694;33.088;2022-11-20T16:44:26;11.9;10.1;8.1
76043;PMS7003;64740;34.694;33.088;2022-11-20T16:49:34;12.4;9.7;7.6
76043;PMS7003;64740;34.694;33.088;2022-11-20T16:54:48;11.3;9.8;7.2
76043;PMS7003;64740;34.694;33.088;2022-11-20T16:59:22;12.5;10.9;8.5
76043;PMS7003;64740;34.694;33.088;2022-11-20T17:04:42;10.8;9.5;7.5
76043;PMS7003;64740;34.694;33.088;2022-11-20T17:09:32;11.5;10.5;8.4
76043;PMS7003;64740;34.694;33.088;2022-11-20T17:14:38;13;10.8;7.8
76043;PMS7003;64740;34.694;33.088;2022-11-20T17:19:14;12.7;10.7;8.4
76043;PMS7003;64740;34.694;33.088;2022-11-20T17:24:06;11.9;10.4;8.1
76043;PMS7003;64740;34.694;33.088;2022-11-20T17:29:15;11.8;10.3;7.9
76043;PMS7003;64740;34.694;33.088;2022-11-20T17:34:46;12.2;10;7.6
76043;PMS7003;64740;34.694;33.088;2022-11-20T17:39:15;12.6;10.6;8.4
76043;PMS7003;64740;34.694;33.088;2022-11-20T17:44:48;13.2;11.2;8.5
76043;PMS7003;64740;34.694;33.088;2022-11-20T17:49:26;12.1;10.1;8
76043;PMS7003;64740;34.694;33.088;2022-11-20T17:54:14;12.4;10.9;8.4
76043;PMS7003;64740;34.694;33.088;2022-11-20T17:59:26;13.5;11.1;8.5
76043;PMS7003;64740;34.694;33.088;2022-11-20T18:04:34;13.3;10.9;8.5
76043;PMS7003;64740;34.694;33.088;2022-11-20T18:09:36;11.5;10.3;7.9
76043;PMS7003;64740;34.694;33.088;2022-11-20T18:14:05;12;10.2;7.9
76043;PMS7003;64740;34.694;33.088;2022-11-20T18:19:17;11.5;10.3;8.3
76043;PMS7003;64740;34.694;33.088;2022-11-20T18:24:48;11.1;9.6;7.5
76043;PMS7003;64740;34.694;33.088;2022-11-20T18:29:39;13.2;10.6;8
76043;PMS7003;64740;34.694;33.088;2022-11-20T18:34:05;11.1;10.1;7.7
76043;PMS7003;64740;34.694;33.088;2022-11-20T18:39:05;13.2;11.1;8.6
76043;PMS7003;64740;34.694;33.088;2022-11-20T18:44:15;13.3;11;8.4
76043;PMS7003;64740;34.694;33.088;2022-11-20T18:49:49;13.5;10.7;8
76043;PMS7003;64740;34.694;33.088;2022-11-20T18:54:25;12.1;10.7;8.3
76043;PMS7003;64740;34.694;33.088;2022-11-20T18:59:49;11.5;9.9;7.8
76043;PMS7003;64740;34.694;33.088;2022-11-20T19:04:15;12.1;10;7.6
76043;PMS7003;64740;34.694;33.088;2022-11-20T19:09:24;13.2;10.7;8.6
76043;PMS7003;64740;34.694;33.088;2022-11-20T19:14:24;12.8;11.3;8.6
76043;PMS7003;64740;34.694;33.088;2022-11-20T19:19:26;11.9;10.3;7.7
76043;PMS7003;64740;34.694;33.088;2022-11-20T19:24:36;12.6;11;8.5
76043;PMS7003;64740;34.694;33.088;2022-11-20T19:29:16;12.2;10.1;7.7
76043;PMS7003;64740;34.694;33.088;2022-11-20T19:34:04;12.4;10.6;8.1
76043;PMS7003;64740;34.694;33.088;2022-11-20T19:39:48;12.1;10.2;7.8
76043;PMS7003;64740;34.694;33.088;2022-11-20T19:44:38;12.1;10.7;8.4
76043;PMS7003;64740;34.694;33.088;2022-11-20T19:49:22;11.6;9.2;6.9
76043;PMS7003;64740;34.694;33.088;2022-11-20T19:54:05;10.9;9.3;7.1
76043;PMS7003;64740;34.694;33.088;2022-11-20T19:59:16;12.4;9.7;7.6
76043;PMS7003;64740;34.694;33.088;2022-11-20T20:04:46;11.5;10;7.6
76043;PMS7003;64740;34.694;33.088;2022-11-20T20:09:22;10.5;9.3;6.9
76043;PMS7003;64740;34.694;33.088;2022-11-20T20:14:50;12;10.3;7.9
76043;PMS7003;64740;34.694;33.088;2022-11-20T20:19:15;12.1;9.7;7.7
76043;PMS7003;64740;34.694;33.088;2022-11-20T20:24:17;12.4;10;7.6
76043;PMS7003;64740;34.694;33.088;2022-11-20T20:29:26;12.5;10.5;8.1
76043;PMS7003;64740;34.694;33.088;2022-11-20T20:34:34;10.9;9.7;7.3
76043;PMS7003;64740;34.694;33.088;2022-11-20T20:39:36;11.2;9.7;7.6
76043;PMS7003;64740;34.694;33.088;2022-11-20T20:44:14;11.7;10.5;7.8
76043;PMS7003;64740;34.694;33.088;2022-11-20T20:49:04;11.4;9.6;7.5
76043;PMS7003;64740;34.694;33.088;2022-11-20T20:54:48;12;10;8
76043;PMS7003;64740;34.694;33.088;2022-11-20T20:59:18;10.7;9.2;7.3
76043;PMS7003;64740;34.694;33.088;2022-11-20T21:04:24;10.8;9.6;7.5
76043;PMS7003;64740;34.694;33.088;2022-11-20T21:09:16;11.1;9.5;7.1
76043;PMS7003;64740;34.694;33.088;2022-11-20T21:14:07;11.8;10.1;8.1
76043;PMS7003;64740;34.694;33.088;2022-11-20T21:19:49;11.3;9.4;7.2
76043;PMS7003;64740;34.694;33.088;2022-11-20T21:24:37;10.6;9;7.1
76043;PMS7003;64740;34.694;33.088;2022-11-20T21:29:50;10.8;9.5;7.5
76043;PMS7003;64740;34.694;33.088;2022-11-20T21:34:29;11.2;9.2;7.3
76043;PMS7003;64740;34.694;33.088;2022-11-20T21:39:27;11.1;9.5;7.3
76043;PMS7003;64740;34.694;33.088;2022-11-20T21:44:27;10.3;8.8;7
76043;PMS7003;64740;34.694;33.088;2022-11-20T21:49:37;10.5;8.9;6.8
76043;PMS7003;64740;34.694;33.088;2022-11-20T21:54:41;10.6;8.9;6.9
76043;PMS7003;64740;34.694;33.088;2022-11-20T21:59:13;11.6;9;6.8
76043;PMS7003;64740;34.694;33.088;2022-11-20T22:04:27;10.3;8.4;6.4
76043;PMS7003;64740;34.694;33.088;2022-11-20T22:09:49;10.8;8.5;6.7
76043;PMS7003;64740;34.694;33.088;2022-11-20T22:14:49;9.7;8.8;6.3
76043;PMS7003;64740;34.694;33.088;2022-11-20T22:19:21;9.7;8.1;6.5
76043;PMS7003;64740;34.694;33.088;2022-11-20T22:24:35;8.5;7.9;6.3
76043;PMS7003;64740;34.694;33.088;2022-11-20T22:29:31;8.5;7.3;5.4
76043;PMS7003;64740;34.694;33.088;2022-11-20T22:34:47;9;8;6
76043;PMS7003;64740;34.694;33.088;2022-11-20T22:39:25;9.1;8.1;6.3
76043;PMS7003;64740;34.694;33.088;2022-11-20T22:44:35;8.7;7.4;6.1
76043;PMS7003;64740;34.694;33.088;2022-11-20T22:49:23;8.8;7.1;5.6
76043;PMS7003;64740;34.694;33.088;2022-11-20T22:54:25;8;7.2;5.8
76043;PMS7003;64740;34.694;33.088;2022-11-20T22:59:13;7.8;7.1;5.7
76043;PMS7003;64740;34.694;33.088;2022-11-20T23:04:25;7.7;6.6;5.3
76043;PMS7003;64740;34.694;33.088;2022-11-20T23:09:35;7.1;6.2;4.8
76043;PMS7003;64740;34.694;33.088;2022-11-20T23:14:33;7.3;6.5;5
76043;PMS7003;64740;34.694;33.088;2022-11-20T23:19:37;7.6;6.5;5.1
76043;PMS7003;64740;34.694;33.088;2022-11-20T23:24:47;7.9;6.6;5.3
76043;PMS7003;64740;34.694;33.088;2022-11-20T23:29:33;7.1;5.6;4.7
76043;PMS7003;64740;34.694;33.088;2022-11-20T23:34:35;6.9;5.4;4.2
76043;PMS7003;64740;34.694;33.088;2022-11-20T23:39:35;7.1;4.7;3.9
76043;PMS7003;64740;34.694;33.088;2022-11-20T23:44:07;6.6;5.3;4.4
76043;PMS7003;64740;34.694;33.088;2022-11-20T23:49:47;5.5;4.7;3.5
76043;PMS7003;64740;34.694;33.088;2022-11-20T23:54:13;5.4;4.7;4
76043;PMS7003;64740;34.694;33.088;2022-11-20T23:59:25;5.7;4.7;3.8
